sensor_id;sensor_type;location;lat;lon;timestamp;P1;durP1;ratioP1;P2;durP2;ratioP2
29210;SDS011;16250;49.932;10.980;2023-02-20T00:00:05;48.30;;;45.33;;
29210;SDS011;16250;49.932;10.980;2023-02-20T00:02:32;43.58;;;41.15;;
29210;SDS011;16250;49.932;10.980;2023-02-20T00:04:58;46.78;;;43.97;;
29210;SDS011;16250;49.932;10.980;2023-02-20T00:07:23;46.45;;;43.67;;
29210;SDS011;16250;49.932;10.980;2023-02-20T00:09:48;46.05;;;43.33;;
29210;SDS011;16250;49.932;10.980;2023-02-20T00:12:14;45.03;;;42.53;;
29210;SDS011;16250;49.932;10.980;2023-02-20T00:14:39;44.80;;;42.03;;
29210;SDS011;16250;49.932;10.980;2023-02-20T00:17:05;44.50;;;42.00;;
29210;SDS011;16250;49.932;10.980;2023-02-20T00:19:30;44.42;;;41.90;;
29210;SDS011;16250;49.932;10.980;2023-02-20T00:21:55;40.38;;;37.97;;
29210;SDS011;16250;49.932;10.980;2023-02-20T00:24:21;42.67;;;40.17;;
29210;SDS011;16250;49.932;10.980;2023-02-20T00:26:52;42.58;;;40.03;;
29210;SDS011;16250;49.932;10.980;2023-02-20T00:29:19;42.40;;;39.70;;
29210;SDS011;16250;49.932;10.980;2023-02-20T00:31:49;38.65;;;36.45;;
29210;SDS011;16250;49.932;10.980;2023-02-20T00:34:16;39.80;;;37.20;;
29210;SDS011;16250;49.932;10.980;2023-02-20T00:36:42;38.78;;;36.38;;
29210;SDS011;16250;49.932;10.980;2023-02-20T00:39:08;35.42;;;33.03;;
29210;SDS011;16250;49.932;10.980;2023-02-20T00:41:34;36.38;;;33.95;;
29210;SDS011;16250;49.932;10.980;2023-02-20T00:43:59;38.22;;;35.72;;
29210;SDS011;16250;49.932;10.980;2023-02-20T00:46:25;37.95;;;35.45;;
29210;SDS011;16250;49.932;10.980;2023-02-20T00:48:50;37.85;;;35.55;;
29210;SDS011;16250;49.932;10.980;2023-02-20T00:51:34;40.72;;;38.22;;
29210;SDS011;16250;49.932;10.980;2023-02-20T00:54:00;38.28;;;35.88;;
29210;SDS011;16250;49.932;10.980;2023-02-20T00:56:26;38.03;;;35.53;;
29210;SDS011;16250;49.932;10.980;2023-02-20T00:58:52;37.45;;;35.13;;
29210;SDS011;16250;49.932;10.980;2023-02-20T01:01:17;37.47;;;35.08;;
29210;SDS011;16250;49.932;10.980;2023-02-20T01:03:43;36.15;;;33.80;;
29210;SDS011;16250;49.932;10.980;2023-02-20T01:06:08;33.60;;;31.60;;
29210;SDS011;16250;49.932;10.980;2023-02-20T01:08:34;34.65;;;32.33;;
29210;SDS011;16250;49.932;10.980;2023-02-20T01:11:01;37.28;;;35.08;;
29210;SDS011;16250;49.932;10.980;2023-02-20T01:13:27;36.10;;;33.85;;
29210;SDS011;16250;49.932;10.980;2023-02-20T01:15:52;37.38;;;34.97;;
29210;SDS011;16250;49.932;10.980;2023-02-20T01:18:17;38.88;;;36.22;;
29210;SDS011;16250;49.932;10.980;2023-02-20T01:20:43;37.38;;;34.75;;
29210;SDS011;16250;49.932;10.980;2023-02-20T01:23:08;39.17;;;36.72;;
29210;SDS011;16250;49.932;10.980;2023-02-20T01:25:34;36.88;;;34.47;;
29210;SDS011;16250;49.932;10.980;2023-02-20T01:27:59;36.15;;;33.75;;
29210;SDS011;16250;49.932;10.980;2023-02-20T01:30:25;37.47;;;34.97;;
29210;SDS011;16250;49.932;10.980;2023-02-20T01:32:50;37.00;;;34.70;;
29210;SDS011;16250;49.932;10.980;2023-02-20T01:35:15;36.83;;;34.53;;
29210;SDS011;16250;49.932;10.980;2023-02-20T01:37:41;36.22;;;33.92;;
29210;SDS011;16250;49.932;10.980;2023-02-20T01:40:07;34.58;;;32.08;;
29210;SDS011;16250;49.932;10.980;2023-02-20T01:42:37;34.30;;;31.90;;
29210;SDS011;16250;49.932;10.980;2023-02-20T01:47:48;31.42;;;29.33;;
29210;SDS011;16250;49.932;10.980;2023-02-20T01:50:18;29.25;;;27.13;;
29210;SDS011;16250;49.932;10.980;2023-02-20T01:52:44;28.67;;;26.67;;
29210;SDS011;16250;49.932;10.980;2023-02-20T01:55:15;27.30;;;25.38;;
29210;SDS011;16250;49.932;10.980;2023-02-20T01:57:47;28.58;;;26.48;;
29210;SDS011;16250;49.932;10.980;2023-02-20T02:00:17;26.65;;;24.63;;
29210;SDS011;16250;49.932;10.980;2023-02-20T02:02:50;24.88;;;23.08;;
29210;SDS011;16250;49.932;10.980;2023-02-20T02:05:19;24.63;;;22.75;;
29210;SDS011;16250;49.932;10.980;2023-02-20T02:07:46;24.50;;;22.48;;
29210;SDS011;16250;49.932;10.980;2023-02-20T02:10:12;23.90;;;22.10;;
29210;SDS011;16250;49.932;10.980;2023-02-20T02:12:38;25.33;;;23.60;;
29210;SDS011;16250;49.932;10.980;2023-02-20T02:15:17;24.92;;;23.00;;
29210;SDS011;16250;49.932;10.980;2023-02-20T02:17:59;26.83;;;24.75;;
29210;SDS011;16250;49.932;10.980;2023-02-20T02:26:17;26.45;;;24.55;;
29210;SDS011;16250;49.932;10.980;2023-02-20T02:29:09;28.30;;;25.98;;
29210;SDS011;16250;49.932;10.980;2023-02-20T02:34:44;27.35;;;25.45;;
29210;SDS011;16250;49.932;10.980;2023-02-20T02:45:20;27.67;;;25.77;;
29210;SDS011;16250;49.932;10.980;2023-02-20T02:50:36;24.33;;;22.42;;
29210;SDS011;16250;49.932;10.980;2023-02-20T02:53:07;24.67;;;22.88;;
29210;SDS011;16250;49.932;10.980;2023-02-20T02:55:33;22.23;;;20.60;;
29210;SDS011;16250;49.932;10.980;2023-02-20T02:57:59;21.88;;;20.08;;
29210;SDS011;16250;49.932;10.980;2023-02-20T03:05:38;20.25;;;18.63;;
29210;SDS011;16250;49.932;10.980;2023-02-20T03:08:15;20.90;;;19.10;;
29210;SDS011;16250;49.932;10.980;2023-02-20T03:11:10;20.20;;;18.40;;
29210;SDS011;16250;49.932;10.980;2023-02-20T03:13:47;20.52;;;18.83;;
29210;SDS011;16250;49.932;10.980;2023-02-20T03:19:35;19.08;;;17.67;;
29210;SDS011;16250;49.932;10.980;2023-02-20T03:22:04;19.90;;;18.15;;
29210;SDS011;16250;49.932;10.980;2023-02-20T03:24:35;21.00;;;19.20;;
29210;SDS011;16250;49.932;10.980;2023-02-20T03:27:21;23.08;;;21.15;;
29210;SDS011;16250;49.932;10.980;2023-02-20T03:29:54;21.92;;;20.23;;
29210;SDS011;16250;49.932;10.980;2023-02-20T03:32:22;21.20;;;19.48;;
29210;SDS011;16250;49.932;10.980;2023-02-20T03:35:08;22.40;;;20.60;;
29210;SDS011;16250;49.932;10.980;2023-02-20T03:37:52;23.05;;;21.15;;
29210;SDS011;16250;49.932;10.980;2023-02-20T03:40:38;24.20;;;22.20;;
29210;SDS011;16250;49.932;10.980;2023-02-20T03:43:23;24.10;;;22.27;;
29210;SDS011;16250;49.932;10.980;2023-02-20T03:45:50;25.58;;;23.48;;
29210;SDS011;16250;49.932;10.980;2023-02-20T03:48:21;28.33;;;26.02;;
29210;SDS011;16250;49.932;10.980;2023-02-20T03:50:50;30.20;;;27.70;;
29210;SDS011;16250;49.932;10.980;2023-02-20T03:53:43;29.85;;;27.48;;
29210;SDS011;16250;49.932;10.980;2023-02-20T03:56:53;28.00;;;25.90;;
29210;SDS011;16250;49.932;10.980;2023-02-20T03:59:05;32.17;;;29.67;;
29210;SDS011;16250;49.932;10.980;2023-02-20T04:01:38;31.58;;;29.00;;
29210;SDS011;16250;49.932;10.980;2023-02-20T04:04:06;32.95;;;30.48;;
29210;SDS011;16250;49.932;10.980;2023-02-20T04:06:37;32.42;;;29.92;;
29210;SDS011;16250;49.932;10.980;2023-02-20T04:09:04;33.35;;;30.58;;
29210;SDS011;16250;49.932;10.980;2023-02-20T04:11:53;33.72;;;31.13;;
29210;SDS011;16250;49.932;10.980;2023-02-20T04:14:22;35.28;;;32.42;;
29210;SDS011;16250;49.932;10.980;2023-02-20T04:16:55;34.33;;;31.48;;
29210;SDS011;16250;49.932;10.980;2023-02-20T04:19:25;36.28;;;33.45;;
29210;SDS011;16250;49.932;10.980;2023-02-20T04:21:54;34.47;;;31.88;;
29210;SDS011;16250;49.932;10.980;2023-02-20T04:24:25;33.40;;;30.70;;
29210;SDS011;16250;49.932;10.980;2023-02-20T04:26:54;34.47;;;31.75;;
29210;SDS011;16250;49.932;10.980;2023-02-20T04:29:19;31.08;;;28.63;;
29210;SDS011;16250;49.932;10.980;2023-02-20T04:31:45;33.22;;;30.38;;
29210;SDS011;16250;49.932;10.980;2023-02-20T04:34:11;33.92;;;31.17;;
29210;SDS011;16250;49.932;10.980;2023-02-20T04:36:37;32.08;;;29.38;;
29210;SDS011;16250;49.932;10.980;2023-02-20T04:39:04;32.33;;;29.77;;
29210;SDS011;16250;49.932;10.980;2023-02-20T04:41:30;31.20;;;28.52;;
29210;SDS011;16250;49.932;10.980;2023-02-20T04:43:57;31.88;;;29.15;;
29210;SDS011;16250;49.932;10.980;2023-02-20T04:46:42;32.40;;;29.65;;
29210;SDS011;16250;49.932;10.980;2023-02-20T04:49:08;28.80;;;26.20;;
29210;SDS011;16250;49.932;10.980;2023-02-20T04:51:34;29.30;;;26.67;;
29210;SDS011;16250;49.932;10.980;2023-02-20T04:53:59;29.05;;;26.52;;
29210;SDS011;16250;49.932;10.980;2023-02-20T04:56:24;31.35;;;28.75;;
29210;SDS011;16250;49.932;10.980;2023-02-20T04:58:51;31.85;;;28.95;;
29210;SDS011;16250;49.932;10.980;2023-02-20T05:01:19;32.05;;;29.42;;
29210;SDS011;16250;49.932;10.980;2023-02-20T05:03:44;28.80;;;26.15;;
29210;SDS011;16250;49.932;10.980;2023-02-20T05:06:10;28.42;;;26.13;;
29210;SDS011;16250;49.932;10.980;2023-02-20T05:08:35;30.85;;;28.27;;
29210;SDS011;16250;49.932;10.980;2023-02-20T05:11:01;29.17;;;26.58;;
29210;SDS011;16250;49.932;10.980;2023-02-20T05:13:26;29.23;;;26.88;;
29210;SDS011;16250;49.932;10.980;2023-02-20T05:15:51;28.60;;;26.25;;
29210;SDS011;16250;49.932;10.980;2023-02-20T05:18:22;54.53;;;48.90;;
29210;SDS011;16250;49.932;10.980;2023-02-20T05:20:51;66.30;;;58.85;;
29210;SDS011;16250;49.932;10.980;2023-02-20T05:23:35;104.45;;;86.97;;
29210;SDS011;16250;49.932;10.980;2023-02-20T05:26:01;29.25;;;26.55;;
29210;SDS011;16250;49.932;10.980;2023-02-20T05:28:26;27.58;;;25.10;;
29210;SDS011;16250;49.932;10.980;2023-02-20T05:30:51;26.58;;;24.25;;
29210;SDS011;16250;49.932;10.980;2023-02-20T05:33:17;22.80;;;20.67;;
29210;SDS011;16250;49.932;10.980;2023-02-20T05:35:42;25.38;;;23.10;;
29210;SDS011;16250;49.932;10.980;2023-02-20T05:38:07;23.00;;;20.80;;
29210;SDS011;16250;49.932;10.980;2023-02-20T05:40:33;22.30;;;20.23;;
29210;SDS011;16250;49.932;10.980;2023-02-20T05:42:58;21.75;;;19.65;;
29210;SDS011;16250;49.932;10.980;2023-02-20T05:45:24;20.70;;;18.98;;
29210;SDS011;16250;49.932;10.980;2023-02-20T05:47:49;22.13;;;20.23;;
29210;SDS011;16250;49.932;10.980;2023-02-20T05:50:15;23.10;;;20.58;;
29210;SDS011;16250;49.932;10.980;2023-02-20T05:52:40;22.50;;;20.25;;
29210;SDS011;16250;49.932;10.980;2023-02-20T05:55:06;22.45;;;20.35;;
29210;SDS011;16250;49.932;10.980;2023-02-20T05:57:31;20.38;;;18.67;;
29210;SDS011;16250;49.932;10.980;2023-02-20T05:59:57;20.83;;;18.77;;
29210;SDS011;16250;49.932;10.980;2023-02-20T06:02:22;21.90;;;19.73;;
29210;SDS011;16250;49.932;10.980;2023-02-20T06:04:48;22.88;;;20.85;;
29210;SDS011;16250;49.932;10.980;2023-02-20T06:07:13;21.67;;;19.42;;
29210;SDS011;16250;49.932;10.980;2023-02-20T06:09:42;22.33;;;20.10;;
29210;SDS011;16250;49.932;10.980;2023-02-20T06:12:08;21.42;;;19.35;;
29210;SDS011;16250;49.932;10.980;2023-02-20T06:14:34;22.42;;;20.48;;
29210;SDS011;16250;49.932;10.980;2023-02-20T06:16:59;20.58;;;18.70;;
29210;SDS011;16250;49.932;10.980;2023-02-20T06:19:25;21.08;;;19.17;;
29210;SDS011;16250;49.932;10.980;2023-02-20T06:21:50;19.95;;;17.92;;
29210;SDS011;16250;49.932;10.980;2023-02-20T06:24:22;23.45;;;21.25;;
29210;SDS011;16250;49.932;10.980;2023-02-20T06:26:48;19.85;;;17.77;;
29210;SDS011;16250;49.932;10.980;2023-02-20T06:29:14;20.20;;;18.17;;
29210;SDS011;16250;49.932;10.980;2023-02-20T06:31:40;18.50;;;16.60;;
29210;SDS011;16250;49.932;10.980;2023-02-20T06:34:06;21.40;;;18.85;;
29210;SDS011;16250;49.932;10.980;2023-02-20T06:36:33;19.83;;;17.50;;
29210;SDS011;16250;49.932;10.980;2023-02-20T06:39:00;19.23;;;17.27;;
29210;SDS011;16250;49.932;10.980;2023-02-20T06:41:26;18.00;;;15.95;;
29210;SDS011;16250;49.932;10.980;2023-02-20T06:43:51;20.13;;;18.23;;
29210;SDS011;16250;49.932;10.980;2023-02-20T06:46:17;24.00;;;21.52;;
29210;SDS011;16250;49.932;10.980;2023-02-20T06:48:49;26.98;;;21.90;;
29210;SDS011;16250;49.932;10.980;2023-02-20T06:51:20;88.07;;;58.35;;
29210;SDS011;16250;49.932;10.980;2023-02-20T06:53:46;54.38;;;37.83;;
29210;SDS011;16250;49.932;10.980;2023-02-20T06:56:16;34.55;;;27.02;;
29210;SDS011;16250;49.932;10.980;2023-02-20T06:58:48;196.40;;;117.60;;
29210;SDS011;16250;49.932;10.980;2023-02-20T07:01:15;159.38;;;99.97;;
29210;SDS011;16250;49.932;10.980;2023-02-20T07:03:41;38.55;;;31.88;;
29210;SDS011;16250;49.932;10.980;2023-02-20T07:06:06;31.00;;;27.67;;
29210;SDS011;16250;49.932;10.980;2023-02-20T07:08:32;23.20;;;20.98;;
29210;SDS011;16250;49.932;10.980;2023-02-20T07:10:57;24.92;;;22.73;;
29210;SDS011;16250;49.932;10.980;2023-02-20T07:13:22;24.02;;;21.83;;
29210;SDS011;16250;49.932;10.980;2023-02-20T07:15:48;22.50;;;20.48;;
29210;SDS011;16250;49.932;10.980;2023-02-20T07:18:14;23.45;;;21.30;;
29210;SDS011;16250;49.932;10.980;2023-02-20T07:20:41;20.40;;;18.55;;
29210;SDS011;16250;49.932;10.980;2023-02-20T07:23:07;21.17;;;19.17;;
29210;SDS011;16250;49.932;10.980;2023-02-20T07:25:32;21.25;;;19.40;;
29210;SDS011;16250;49.932;10.980;2023-02-20T07:27:57;20.80;;;18.83;;
29210;SDS011;16250;49.932;10.980;2023-02-20T07:30:23;20.75;;;18.95;;
29210;SDS011;16250;49.932;10.980;2023-02-20T07:32:49;21.02;;;19.35;;
29210;SDS011;16250;49.932;10.980;2023-02-20T07:35:15;21.10;;;19.20;;
29210;SDS011;16250;49.932;10.980;2023-02-20T07:37:40;19.52;;;17.85;;
29210;SDS011;16250;49.932;10.980;2023-02-20T07:40:06;22.60;;;20.65;;
29210;SDS011;16250;49.932;10.980;2023-02-20T07:42:31;21.17;;;19.23;;
29210;SDS011;16250;49.932;10.980;2023-02-20T07:45:05;23.90;;;21.70;;
29210;SDS011;16250;49.932;10.980;2023-02-20T07:47:31;23.77;;;21.58;;
29210;SDS011;16250;49.932;10.980;2023-02-20T07:49:56;23.80;;;21.80;;
29210;SDS011;16250;49.932;10.980;2023-02-20T07:52:22;23.98;;;21.98;;
29210;SDS011;16250;49.932;10.980;2023-02-20T07:54:47;24.05;;;21.95;;
29210;SDS011;16250;49.932;10.980;2023-02-20T07:57:13;24.27;;;22.20;;
29210;SDS011;16250;49.932;10.980;2023-02-20T07:59:39;25.70;;;23.58;;
29210;SDS011;16250;49.932;10.980;2023-02-20T08:02:05;26.17;;;23.77;;
29210;SDS011;16250;49.932;10.980;2023-02-20T08:04:31;29.20;;;26.77;;
29210;SDS011;16250;49.932;10.980;2023-02-20T08:06:56;28.20;;;26.00;;
29210;SDS011;16250;49.932;10.980;2023-02-20T08:09:22;30.95;;;28.35;;
29210;SDS011;16250;49.932;10.980;2023-02-20T08:11:47;28.35;;;26.02;;
29210;SDS011;16250;49.932;10.980;2023-02-20T08:14:13;29.27;;;26.95;;
29210;SDS011;16250;49.932;10.980;2023-02-20T08:16:39;27.35;;;24.80;;
29210;SDS011;16250;49.932;10.980;2023-02-20T08:19:04;25.98;;;23.90;;
29210;SDS011;16250;49.932;10.980;2023-02-20T08:21:30;25.35;;;23.45;;
29210;SDS011;16250;49.932;10.980;2023-02-20T08:23:55;25.67;;;23.60;;
29210;SDS011;16250;49.932;10.980;2023-02-20T08:26:21;25.00;;;22.92;;
29210;SDS011;16250;49.932;10.980;2023-02-20T08:28:47;23.30;;;20.85;;
29210;SDS011;16250;49.932;10.980;2023-02-20T08:31:13;22.85;;;20.70;;
29210;SDS011;16250;49.932;10.980;2023-02-20T08:33:38;21.65;;;19.67;;
29210;SDS011;16250;49.932;10.980;2023-02-20T08:36:04;20.40;;;18.58;;
29210;SDS011;16250;49.932;10.980;2023-02-20T08:38:31;22.65;;;20.63;;
29210;SDS011;16250;49.932;10.980;2023-02-20T08:40:58;19.70;;;17.83;;
29210;SDS011;16250;49.932;10.980;2023-02-20T08:43:24;20.00;;;18.02;;
29210;SDS011;16250;49.932;10.980;2023-02-20T08:45:51;21.13;;;19.25;;
29210;SDS011;16250;49.932;10.980;2023-02-20T08:48:16;18.73;;;17.15;;
29210;SDS011;16250;49.932;10.980;2023-02-20T08:50:42;21.05;;;19.15;;
29210;SDS011;16250;49.932;10.980;2023-02-20T08:53:07;18.40;;;16.42;;
29210;SDS011;16250;49.932;10.980;2023-02-20T08:55:32;16.60;;;15.05;;
29210;SDS011;16250;49.932;10.980;2023-02-20T08:57:58;15.23;;;13.07;;
29210;SDS011;16250;49.932;10.980;2023-02-20T09:00:23;15.10;;;12.48;;
29210;SDS011;16250;49.932;10.980;2023-02-20T09:02:49;14.55;;;12.32;;
29210;SDS011;16250;49.932;10.980;2023-02-20T09:05:14;13.85;;;12.55;;
29210;SDS011;16250;49.932;10.980;2023-02-20T09:07:40;12.90;;;11.25;;
29210;SDS011;16250;49.932;10.980;2023-02-20T09:10:06;12.73;;;10.98;;
29210;SDS011;16250;49.932;10.980;2023-02-20T09:12:31;12.38;;;10.18;;
29210;SDS011;16250;49.932;10.980;2023-02-20T09:14:57;15.45;;;9.60;;
29210;SDS011;16250;49.932;10.980;2023-02-20T09:17:25;13.25;;;9.85;;
29210;SDS011;16250;49.932;10.980;2023-02-20T09:19:53;14.02;;;8.73;;
29210;SDS011;16250;49.932;10.980;2023-02-20T09:22:22;13.93;;;9.45;;
29210;SDS011;16250;49.932;10.980;2023-02-20T09:24:51;12.32;;;7.63;;
29210;SDS011;16250;49.932;10.980;2023-02-20T09:27:17;11.48;;;7.50;;
29210;SDS011;16250;49.932;10.980;2023-02-20T09:29:43;9.60;;;6.75;;
29210;SDS011;16250;49.932;10.980;2023-02-20T09:32:09;9.18;;;6.97;;
29210;SDS011;16250;49.932;10.980;2023-02-20T09:34:35;11.45;;;6.90;;
29210;SDS011;16250;49.932;10.980;2023-02-20T09:37:00;9.75;;;6.00;;
29210;SDS011;16250;49.932;10.980;2023-02-20T09:39:25;14.27;;;5.88;;
29210;SDS011;16250;49.932;10.980;2023-02-20T09:42:04;7.47;;;5.65;;
29210;SDS011;16250;49.932;10.980;2023-02-20T09:44:43;7.53;;;5.15;;
29210;SDS011;16250;49.932;10.980;2023-02-20T09:47:23;7.38;;;4.47;;
29210;SDS011;16250;49.932;10.980;2023-02-20T09:49:58;8.50;;;4.25;;
29210;SDS011;16250;49.932;10.980;2023-02-20T09:52:25;6.53;;;4.40;;
29210;SDS011;16250;49.932;10.980;2023-02-20T09:54:52;7.25;;;4.25;;
29210;SDS011;16250;49.932;10.980;2023-02-20T09:57:23;5.78;;;3.83;;
29210;SDS011;16250;49.932;10.980;2023-02-20T09:59:54;8.43;;;4.30;;
29210;SDS011;16250;49.932;10.980;2023-02-20T10:02:24;6.80;;;4.15;;
29210;SDS011;16250;49.932;10.980;2023-02-20T10:05:20;6.72;;;4.70;;
29210;SDS011;16250;49.932;10.980;2023-02-20T10:07:48;8.45;;;4.25;;
29210;SDS011;16250;49.932;10.980;2023-02-20T10:10:19;7.43;;;4.18;;
29210;SDS011;16250;49.932;10.980;2023-02-20T10:15:25;6.88;;;4.35;;
29210;SDS011;16250;49.932;10.980;2023-02-20T10:17:57;9.75;;;4.10;;
29210;SDS011;16250;49.932;10.980;2023-02-20T10:25:58;7.15;;;3.90;;
29210;SDS011;16250;49.932;10.980;2023-02-20T10:28:25;5.40;;;3.85;;
29210;SDS011;16250;49.932;10.980;2023-02-20T10:30:58;7.53;;;4.40;;
29210;SDS011;16250;49.932;10.980;2023-02-20T10:36:16;9.48;;;5.10;;
29210;SDS011;16250;49.932;10.980;2023-02-20T10:38:49;10.70;;;4.80;;
29210;SDS011;16250;49.932;10.980;2023-02-20T10:41:19;11.05;;;4.57;;
29210;SDS011;16250;49.932;10.980;2023-02-20T10:43:53;5.70;;;3.85;;
29210;SDS011;16250;49.932;10.980;2023-02-20T10:49:13;9.52;;;4.90;;
29210;SDS011;16250;49.932;10.980;2023-02-20T10:51:42;8.90;;;5.10;;
29210;SDS011;16250;49.932;10.980;2023-02-20T10:54:11;8.27;;;5.57;;
29210;SDS011;16250;49.932;10.980;2023-02-20T10:59:11;9.60;;;5.45;;
29210;SDS011;16250;49.932;10.980;2023-02-20T11:01:47;8.55;;;5.57;;
29210;SDS011;16250;49.932;10.980;2023-02-20T11:04:20;7.97;;;5.50;;
29210;SDS011;16250;49.932;10.980;2023-02-20T11:06:56;8.85;;;5.50;;
29210;SDS011;16250;49.932;10.980;2023-02-20T11:09:23;8.10;;;5.33;;
29210;SDS011;16250;49.932;10.980;2023-02-20T11:11:50;8.27;;;5.47;;
29210;SDS011;16250;49.932;10.980;2023-02-20T11:19:20;7.90;;;5.10;;
29210;SDS011;16250;49.932;10.980;2023-02-20T11:21:55;10.93;;;5.43;;
29210;SDS011;16250;49.932;10.980;2023-02-20T11:24:29;7.90;;;4.85;;
29210;SDS011;16250;49.932;10.980;2023-02-20T11:27:04;8.23;;;5.47;;
29210;SDS011;16250;49.932;10.980;2023-02-20T11:30:15;10.43;;;5.65;;
29210;SDS011;16250;49.932;10.980;2023-02-20T11:32:26;8.38;;;5.03;;
29210;SDS011;16250;49.932;10.980;2023-02-20T11:38:14;8.65;;;4.85;;
29210;SDS011;16250;49.932;10.980;2023-02-20T11:40:44;7.00;;;5.40;;
29210;SDS011;16250;49.932;10.980;2023-02-20T11:43:32;11.90;;;5.40;;
29210;SDS011;16250;49.932;10.980;2023-02-20T11:46:19;7.75;;;4.68;;
29210;SDS011;16250;49.932;10.980;2023-02-20T11:51:30;8.27;;;5.30;;
29210;SDS011;16250;49.932;10.980;2023-02-20T11:54:12;7.18;;;4.72;;
29210;SDS011;16250;49.932;10.980;2023-02-20T11:56:37;7.97;;;4.95;;
29210;SDS011;16250;49.932;10.980;2023-02-20T11:59:36;8.80;;;5.35;;
29210;SDS011;16250;49.932;10.980;2023-02-20T12:04:45;6.90;;;4.72;;
29210;SDS011;16250;49.932;10.980;2023-02-20T12:10:00;9.30;;;4.97;;
29210;SDS011;16250;49.932;10.980;2023-02-20T12:12:29;7.50;;;4.95;;
29210;SDS011;16250;49.932;10.980;2023-02-20T12:14:56;9.35;;;4.68;;
29210;SDS011;16250;49.932;10.980;2023-02-20T12:18:00;7.20;;;4.93;;
29210;SDS011;16250;49.932;10.980;2023-02-20T12:20:35;8.35;;;4.80;;
29210;SDS011;16250;49.932;10.980;2023-02-20T12:25:36;8.75;;;4.65;;
29210;SDS011;16250;49.932;10.980;2023-02-20T12:33:49;7.53;;;4.68;;
29210;SDS011;16250;49.932;10.980;2023-02-20T12:36:22;9.20;;;4.65;;
29210;SDS011;16250;49.932;10.980;2023-02-20T12:41:30;8.57;;;4.82;;
29210;SDS011;16250;49.932;10.980;2023-02-20T12:55:48;6.47;;;3.83;;
29210;SDS011;16250;49.932;10.980;2023-02-20T12:58:51;8.07;;;4.43;;
29210;SDS011;16250;49.932;10.980;2023-02-20T13:01:21;8.45;;;4.78;;
29210;SDS011;16250;49.932;10.980;2023-02-20T13:06:42;10.43;;;4.15;;
29210;SDS011;16250;49.932;10.980;2023-02-20T13:11:49;7.47;;;4.38;;
29210;SDS011;16250;49.932;10.980;2023-02-20T13:14:27;10.82;;;4.03;;
29210;SDS011;16250;49.932;10.980;2023-02-20T13:17:07;8.40;;;4.15;;
29210;SDS011;16250;49.932;10.980;2023-02-20T13:19:41;7.45;;;4.15;;
29210;SDS011;16250;49.932;10.980;2023-02-20T13:22:10;7.57;;;3.72;;
29210;SDS011;16250;49.932;10.980;2023-02-20T13:24:36;5.85;;;3.90;;
29210;SDS011;16250;49.932;10.980;2023-02-20T13:27:26;9.00;;;4.00;;
29210;SDS011;16250;49.932;10.980;2023-02-20T13:29:55;5.78;;;3.40;;
29210;SDS011;16250;49.932;10.980;2023-02-20T13:32:40;7.03;;;3.25;;
29210;SDS011;16250;49.932;10.980;2023-02-20T13:38:13;6.88;;;3.45;;
29210;SDS011;16250;49.932;10.980;2023-02-20T13:40:40;8.43;;;3.65;;
29210;SDS011;16250;49.932;10.980;2023-02-20T13:53:53;5.50;;;3.30;;
29210;SDS011;16250;49.932;10.980;2023-02-20T13:56:24;9.57;;;3.58;;
29210;SDS011;16250;49.932;10.980;2023-02-20T13:58:56;4.82;;;3.08;;
29210;SDS011;16250;49.932;10.980;2023-02-20T14:01:23;6.38;;;3.45;;
29210;SDS011;16250;49.932;10.980;2023-02-20T14:04:01;6.15;;;3.15;;
29210;SDS011;16250;49.932;10.980;2023-02-20T14:06:28;8.32;;;3.03;;
29210;SDS011;16250;49.932;10.980;2023-02-20T14:09:06;5.88;;;3.00;;
29210;SDS011;16250;49.932;10.980;2023-02-20T14:11:35;7.75;;;3.58;;
29210;SDS011;16250;49.932;10.980;2023-02-20T14:14:08;6.22;;;3.20;;
29210;SDS011;16250;49.932;10.980;2023-02-20T14:16:50;8.05;;;3.35;;
29210;SDS011;16250;49.932;10.980;2023-02-20T14:21:51;7.07;;;3.67;;
29210;SDS011;16250;49.932;10.980;2023-02-20T14:26:47;9.15;;;2.88;;
29210;SDS011;16250;49.932;10.980;2023-02-20T14:29:46;8.68;;;3.58;;
29210;SDS011;16250;49.932;10.980;2023-02-20T14:32:04;7.65;;;3.33;;
29210;SDS011;16250;49.932;10.980;2023-02-20T14:34:45;6.68;;;3.05;;
29210;SDS011;16250;49.932;10.980;2023-02-20T14:42:20;9.40;;;3.60;;
29210;SDS011;16250;49.932;10.980;2023-02-20T14:44:47;5.30;;;3.05;;
29210;SDS011;16250;49.932;10.980;2023-02-20T14:47:15;7.50;;;3.20;;
29210;SDS011;16250;49.932;10.980;2023-02-20T14:49:41;4.90;;;3.05;;
29210;SDS011;16250;49.932;10.980;2023-02-20T14:52:15;6.63;;;3.30;;
29210;SDS011;16250;49.932;10.980;2023-02-20T14:54:54;4.78;;;2.90;;
29210;SDS011;16250;49.932;10.980;2023-02-20T14:57:22;9.63;;;3.15;;
29210;SDS011;16250;49.932;10.980;2023-02-20T14:59:47;8.50;;;3.47;;
29210;SDS011;16250;49.932;10.980;2023-02-20T15:04:51;5.65;;;3.60;;
29210;SDS011;16250;49.932;10.980;2023-02-20T15:07:27;6.85;;;2.85;;
29210;SDS011;16250;49.932;10.980;2023-02-20T15:09:54;5.00;;;2.67;;
29210;SDS011;16250;49.932;10.980;2023-02-20T15:12:26;6.65;;;3.15;;
29210;SDS011;16250;49.932;10.980;2023-02-20T15:15:03;3.83;;;2.50;;
29210;SDS011;16250;49.932;10.980;2023-02-20T15:17:34;5.50;;;3.20;;
29210;SDS011;16250;49.932;10.980;2023-02-20T15:20:32;8.95;;;3.22;;
29210;SDS011;16250;49.932;10.980;2023-02-20T15:25:39;4.97;;;2.40;;
29210;SDS011;16250;49.932;10.980;2023-02-20T15:28:09;6.60;;;2.92;;
29210;SDS011;16250;49.932;10.980;2023-02-20T15:33:34;7.95;;;3.10;;
29210;SDS011;16250;49.932;10.980;2023-02-20T15:36:02;7.90;;;3.03;;
29210;SDS011;16250;49.932;10.980;2023-02-20T15:38:30;6.15;;;2.90;;
29210;SDS011;16250;49.932;10.980;2023-02-20T15:40:57;4.53;;;2.67;;
29210;SDS011;16250;49.932;10.980;2023-02-20T15:43:24;5.05;;;2.55;;
29210;SDS011;16250;49.932;10.980;2023-02-20T15:45:50;5.47;;;3.22;;
29210;SDS011;16250;49.932;10.980;2023-02-20T15:48:15;4.45;;;2.72;;
29210;SDS011;16250;49.932;10.980;2023-02-20T15:50:41;5.82;;;2.88;;
29210;SDS011;16250;49.932;10.980;2023-02-20T15:53:08;9.32;;;3.10;;
29210;SDS011;16250;49.932;10.980;2023-02-20T15:55:36;11.73;;;3.13;;
29210;SDS011;16250;49.932;10.980;2023-02-20T15:58:01;8.65;;;3.15;;
29210;SDS011;16250;49.932;10.980;2023-02-20T16:00:28;5.53;;;2.75;;
29210;SDS011;16250;49.932;10.980;2023-02-20T16:02:57;6.90;;;3.50;;
29210;SDS011;16250;49.932;10.980;2023-02-20T16:05:23;7.13;;;3.38;;
29210;SDS011;16250;49.932;10.980;2023-02-20T16:07:49;8.20;;;3.67;;
29210;SDS011;16250;49.932;10.980;2023-02-20T16:10:15;9.65;;;3.45;;
29210;SDS011;16250;49.932;10.980;2023-02-20T16:12:42;3.67;;;2.60;;
29210;SDS011;16250;49.932;10.980;2023-02-20T16:15:15;7.60;;;3.45;;
29210;SDS011;16250;49.932;10.980;2023-02-20T16:17:41;5.25;;;2.75;;
29210;SDS011;16250;49.932;10.980;2023-02-20T16:20:26;5.35;;;2.80;;
29210;SDS011;16250;49.932;10.980;2023-02-20T16:22:53;5.55;;;3.03;;
29210;SDS011;16250;49.932;10.980;2023-02-20T16:25:20;4.55;;;2.95;;
29210;SDS011;16250;49.932;10.980;2023-02-20T16:27:46;7.20;;;2.80;;
29210;SDS011;16250;49.932;10.980;2023-02-20T16:30:20;7.82;;;2.85;;
29210;SDS011;16250;49.932;10.980;2023-02-20T16:32:50;5.72;;;3.25;;
29210;SDS011;16250;49.932;10.980;2023-02-20T16:35:16;5.35;;;3.00;;